Time;durP1;ratioP1;P1;durP2;ratioP2;P2;SDS_P1;SDS_P2;PMS_P1;PMS_P2;Temp;Humidity;BMP_temperature;BMP_pressure;BME280_temperature;BME280_humidity;BME280_pressure;Samples;Min_cycle;Max_cycle;Signal;HPM_P1;HPM_P2
2023/10/01 18:04:45;;;;;;;1.95;1.67;;;;;;;21.12;100.00;100776.88;5010123;28;20746;-85
2023/10/01 18:07:24;;;;;;;3.00;2.72;;;;;;;21.08;100.00;100792.13;4994863;28;20129;-85
2023/10/01 18:09:52;;;;;;;1.85;1.27;;;;;;;20.97;100.00;100794.31;5029266;28;20042;-84
2023/10/01 18:12:33;;;;;;;2.67;2.40;;;;;;;21.11;100.00;100814.28;5000269;28;20029;-85
2023/10/01 18:14:59;;;;;;;4.20;3.58;;;;;;;21.07;100.00;100810.84;5002992;28;20054;-85
2023/10/01 18:17:25;;;;;;;4.43;2.22;;;;;;;20.56;100.00;100738.03;4992839;28;20410;-84
2023/10/01 18:19:51;;;;;;;2.55;1.65;;;;;;;20.91;100.00;100785.66;4998380;28;20145;-84
2023/10/01 18:22:27;;;;;;;2.50;1.65;;;;;;;20.50;100.00;100713.34;4996796;28;20046;-84
2023/10/01 18:24:54;;;;;;;2.88;2.60;;;;;;;20.44;100.00;100712.66;5027529;28;20125;-83
2023/10/01 18:27:23;;;;;;;4.25;3.65;;;;;;;21.07;100.00;100824.19;4997095;28;20089;-84
2023/10/01 18:30:00;;;;;;;1.83;1.73;;;;;;;20.49;100.00;100732.97;5000318;28;20054;-83
2023/10/01 18:32:27;;;;;;;3.15;1.85;;;;;;;20.34;100.00;100713.91;4995661;28;20137;-82
2023/10/01 18:34:53;;;;;;;1.70;1.48;;;;;;;20.36;100.00;100717.38;4988987;28;20626;-85
2023/10/01 18:37:27;;;;;;;1.55;1.35;;;;;;;20.76;100.00;100779.09;4998520;28;20050;-85
2023/10/01 18:39:56;;;;;;;1.25;1.15;;;;;;;20.77;100.00;100781.72;4989606;28;20072;-80
2023/10/01 18:42:24;;;;;;;0.60;0.60;;;;;;;20.49;100.00;100739.16;5001288;28;20096;-81
2023/10/01 18:44:53;;;;;;;4.82;2.53;;;;;;;20.68;100.00;100758.06;4996694;28;20076;-83
2023/10/01 18:47:21;;;;;;;3.63;2.58;;;;;;;19.41;100.00;100558.22;4992563;28;20062;-81
2023/10/01 18:49:47;;;;;;;1.58;1.10;;;;;;;20.58;100.00;100762.84;4998667;28;20193;-81
2023/10/01 18:52:18;;;;;;;1.25;1.02;;;;;;;20.36;100.00;100735.16;4978237;28;20819;-82
2023/10/01 18:54:44;;;;;;;1.13;0.85;;;;;;;20.76;100.00;100817.31;4996506;28;20193;-82
2023/10/01 18:57:10;;;;;;;2.25;1.48;;;;;;;20.63;100.00;100779.56;4995484;28;20121;-82
2023/10/01 18:59:38;;;;;;;2.67;2.45;;;;;;;20.63;100.00;100784.03;4999655;28;20636;-81
2023/10/01 19:02:06;;;;;;;1.30;1.20;;;;;;;20.79;100.00;100829.66;4995761;28;20062;-81
2023/10/01 19:04:31;;;;;;;3.85;1.90;;;;;;;20.38;100.00;100750.19;4998908;28;20160;-86
2023/10/01 19:06:57;;;;;;;1.63;1.52;;;;;;;20.45;100.00;100793.50;4982108;28;20052;-83
2023/10/01 19:09:27;;;;;;;1.90;1.33;;;;;;;20.35;100.00;100768.09;4994308;28;20044;-77
2023/10/01 19:11:55;;;;;;;0.85;0.85;;;;;;;20.26;100.00;100771.94;4997465;28;20038;-77
2023/10/01 19:14:22;;;;;;;1.42;0.85;;;;;;;20.15;100.00;100756.31;4991182;28;20056;-77
2023/10/01 19:16:49;;;;;;;2.35;2.05;;;;;;;19.42;100.00;100636.25;4976523;28;20772;-76
2023/10/01 19:19:27;;;;;;;1.50;1.40;;;;;;;20.52;100.00;100851.00;4984252;28;20053;-75
2023/10/01 19:21:54;;;;;;;1.65;1.15;;;;;;;19.90;100.00;100764.28;4985545;28;20116;-75
2023/10/01 19:24:22;;;;;;;1.38;0.95;;;;;;;20.51;100.00;100856.38;4986849;28;20538;-74
2023/10/01 19:26:49;;;;;;;1.92;1.73;;;;;;;20.48;100.00;100856.50;5014036;28;20465;-76
2023/10/01 19:29:16;;;;;;;10.32;1.75;;;;;;;20.39;100.00;100839.91;4984289;28;20495;-75
2023/10/01 19:31:51;;;;;;;2.35;1.60;;;;;;;20.36;100.00;100857.78;4982880;28;20137;-76
2023/10/01 19:34:22;;;;;;;1.95;1.42;;;;;;;20.06;100.00;100846.34;4984275;28;20053;-75
2023/10/01 19:36:49;;;;;;;9.93;2.65;;;;;;;20.15;100.00;100868.22;4983959;28;20765;-77
2023/10/01 19:39:22;;;;;;;1.50;1.40;;;;;;;19.99;100.00;100875.84;4985154;28;20034;-77
2023/10/01 19:42:00;;;;;;;0.65;0.65;;;;;;;19.48;100.00;100767.34;4986900;28;20066;-78
2023/10/01 19:44:30;;;;;;;1.35;1.25;;;;;;;19.72;100.00;100812.78;4987709;28;20693;-78
2023/10/01 19:47:03;;;;;;;1.38;1.25;;;;;;;19.53;100.00;100794.69;5017037;28;20126;-78
2023/10/01 19:49:31;;;;;;;1.63;1.02;;;;;;;19.57;100.00;100822.97;4976900;28;20421;-79
2023/10/01 19:51:57;;;;;;;0.73;0.73;;;;;;;19.86;100.00;100845.19;4978509;28;20046;-78
2023/10/01 19:54:25;;;;;;;2.60;1.63;;;;;;;19.58;100.00;100835.34;4985759;28;20035;-76
2023/10/01 19:56:52;;;;;;;2.85;1.30;;;;;;;19.49;100.00;100822.31;4987244;28;20066;-75
2023/10/01 19:59:21;;;;;;;1.98;1.88;;;;;;;19.69;100.00;100847.47;4985322;28;20046;-80
2023/10/01 20:01:48;;;;;;;1.75;1.20;;;;;;;19.77;100.00;100885.41;4987603;28;20046;-78
2023/10/01 20:04:15;;;;;;;3.40;2.22;;;;;;;18.96;100.00;100731.66;4988514;28;20141;-79
2023/10/01 20:06:47;;;;;;;0.88;0.73;;;;;;;19.74;100.00;100894.38;4983179;28;20030;-80
2023/10/01 20:09:32;;;;;;;1.48;0.90;;;;;;;19.72;100.00;100879.38;4977832;28;20039;-81
2023/10/01 20:11:59;;;;;;;2.38;2.17;;;;;;;18.81;100.00;100721.50;4965063;28;20059;-77
2023/10/01 20:14:33;;;;;;;1.52;0.93;;;;;;;19.28;100.00;100801.69;4968739;28;20474;-75
2023/10/01 20:17:00;;;;;;;0.70;0.70;;;;;;;19.76;100.00;100891.66;4978175;28;21135;-76
2023/10/01 20:19:26;;;;;;;4.68;1.83;;;;;;;19.66;100.00;100868.84;4985085;28;20046;-78
2023/10/01 20:21:53;;;;;;;2.17;1.90;;;;;;;19.26;100.00;100800.84;4985618;28;20022;-79
2023/10/01 20:24:24;;;;;;;2.13;1.88;;;;;;;19.01;100.00;100777.66;4987802;28;20034;-79
2023/10/01 20:26:52;;;;;;;3.47;1.92;;;;;;;18.66;100.00;100752.91;4986557;28;20046;-80
2023/10/01 20:29:18;;;;;;;0.75;0.75;;;;;;;19.51;100.00;100884.38;4984874;28;20060;-82
2023/10/01 20:31:45;;;;;;;0.60;0.60;;;;;;;19.00;100.00;100806.94;4985722;28;20056;-79
2023/10/01 20:34:12;;;;;;;0.38;0.30;;;;;;;19.34;100.00;100857.41;5010424;28;20391;-82
2023/10/01 20:36:37;;;;;;;1.08;0.73;;;;;;;19.18;100.00;100844.53;5018269;28;20034;-87
2023/10/01 20:39:03;;;;;;;0.90;0.80;;;;;;;19.54;100.00;100902.03;4986881;28;20124;-86
2023/10/01 20:41:29;;;;;;;0.35;0.30;;;;;;;19.05;100.00;100839.59;4985707;28;20046;-87
2023/10/01 20:43:55;;;;;;;1.25;0.73;;;;;;;19.23;100.00;100872.78;4978961;28;20417;-79
2023/10/01 20:46:21;;;;;;;0.73;0.70;;;;;;;18.89;100.00;100809.88;4985080;28;20053;-81
2023/10/01 20:48:59;;;;;;;1.60;1.50;;;;;;;18.67;100.00;100814.91;4980329;28;20034;-80
2023/10/01 20:51:41;;;;;;;0.50;0.40;;;;;;;18.70;100.00;100801.53;4981062;28;20038;-80
2023/10/01 20:54:12;;;;;;;1.73;1.00;;;;;;;19.31;100.00;100908.88;4981278;28;20068;-79
2023/10/01 20:56:42;;;;;;;2.67;1.95;;;;;;;18.70;100.00;100836.06;4983416;28;20074;-79
2023/10/01 20:59:13;;;;;;;2.53;2.33;;;;;;;19.18;100.00;100907.50;4985352;28;20057;-80
2023/10/01 21:01:58;;;;;;;0.20;0.20;;;;;;;18.76;100.00;100828.84;4982478;28;20050;-78
2023/10/01 21:04:31;;;;;;;0.80;0.80;;;;;;;18.75;100.00;100827.09;4983207;28;20058;-79
2023/10/01 21:07:01;;;;;;;1.30;1.20;;;;;;;18.84;100.00;100841.91;4986201;28;20077;-79
2023/10/01 21:09:37;;;;;;;1.02;0.93;;;;;;;18.59;100.00;100809.81;4986809;28;20027;-79
2023/10/01 21:12:06;;;;;;;1.50;1.40;;;;;;;18.35;100.00;100822.81;4981321;28;20514;-78
2023/10/01 21:14:33;;;;;;;1.42;1.25;;;;;;;19.06;100.00;100919.34;4984378;28;20058;-79
2023/10/01 21:17:05;;;;;;;1.40;0.50;;;;;;;18.95;100.00;100897.50;4983838;28;20057;-80
2023/10/01 21:19:34;;;;;;;0.20;0.20;;;;;;;18.74;100.00;100894.44;4984326;28;20791;-79
2023/10/01 21:22:05;;;;;;;2.20;1.83;;;;;;;18.75;100.00;100887.34;4986523;28;20161;-78
2023/10/01 21:24:33;;;;;;;0.57;0.25;;;;;;;18.91;100.00;100912.63;4979072;28;20053;-77
2023/10/01 21:27:00;;;;;;;0.17;0.17;;;;;;;18.82;100.00;100904.03;4983696;28;20074;-79
2023/10/01 21:29:34;;;;;;;1.27;1.05;;;;;;;18.64;100.00;100865.50;4986848;28;20046;-79
2023/10/01 21:32:00;;;;;;;2.40;2.20;;;;;;;18.75;100.00;100912.16;4986140;28;20046;-79
2023/10/01 21:34:33;;;;;;;0.57;0.57;;;;;;;18.62;100.00;100859.34;4985714;28;20039;-79
2023/10/01 21:37:00;;;;;;;;;;;;;;;18.91;100.00;100915.31;4985833;28;20056;-80
2023/10/01 21:39:26;;;;;;;0.98;0.98;;;;;;;18.56;100.00;100873.66;4986623;28;19949;-79
2023/10/01 21:41:51;;;;;;;1.60;1.23;;;;;;;18.70;100.00;100890.09;4986120;28;20116;-79
2023/10/01 21:44:26;;;;;;;0.95;0.93;;;;;;;18.72;100.00;100892.75;4986600;28;20050;-80
2023/10/01 21:46:59;;;;;;;0.73;0.73;;;;;;;18.29;100.00;100819.44;4985272;28;20039;-80
2023/10/01 21:49:28;;;;;;;0.93;0.88;;;;;;;18.68;100.00;100897.28;4979595;28;20055;-80
2023/10/01 21:52:09;;;;;;;1.17;1.08;;;;;;;18.61;100.00;100922.25;4985452;28;20034;-80
2023/10/01 21:54:36;;;;;;;6.63;3.35;;;;;;;18.67;100.00;100931.88;4986138;28;20045;-77
2023/10/01 21:57:02;;;;;;;0.55;0.55;;;;;;;18.16;100.00;100831.28;5015147;28;20458;-80
2023/10/01 21:59:36;;;;;;;1.52;1.10;;;;;;;18.12;100.00;100830.47;4985139;28;20526;-80
2023/10/01 22:02:11;;;;;;;0.57;0.57;;;;;;;18.58;100.00;100906.38;4984241;28;20462;-79
2023/10/01 22:04:39;;;;;;;1.40;1.27;;;;;;;18.74;100.00;100909.53;4984175;28;20086;-79
2023/10/01 22:07:06;;;;;;;1.40;1.30;;;;;;;18.21;99.38;100830.22;4985578;28;20042;-79
2023/10/01 22:09:32;;;;;;;0.77;0.77;;;;;;;18.13;98.20;100819.81;4986083;28;20034;-80
2023/10/01 22:11:58;;;;;;;0.85;0.80;;;;;;;17.95;99.10;100809.63;4986209;28;20038;-79
2023/10/01 22:14:28;;;;;;;3.13;0.88;;;;;;;18.19;98.92;100842.72;4986276;28;20046;-81
2023/10/01 22:16:56;;;;;;;0.93;0.68;;;;;;;18.08;98.30;100837.66;4985619;28;20426;-80
2023/10/01 22:19:23;;;;;;;0.20;0.20;;;;;;;18.07;97.66;100870.41;4986121;28;20042;-80
2023/10/01 22:21:50;;;;;;;0.65;0.65;;;;;;;18.00;96.92;100852.88;4985684;28;20471;-81
2023/10/01 22:24:37;;;;;;;0.77;0.77;;;;;;;18.55;95.74;100941.88;4988765;28;20037;-82
2023/10/01 22:27:07;;;;;;;0.85;0.85;;;;;;;18.63;94.86;100943.47;4993124;28;20058;-81
2023/10/01 22:29:34;;;;;;;1.08;0.65;;;;;;;18.49;95.83;100949.13;4994926;28;20046;-77
2023/10/01 22:32:02;;;;;;;2.20;1.85;;;;;;;18.42;95.62;100910.34;4999058;28;20081;-83
2023/10/01 22:34:29;;;;;;;5.47;0.80;;;;;;;18.62;94.48;100963.88;4999657;28;20666;-80
2023/10/01 22:36:57;;;;;;;0.15;0.15;;;;;;;18.45;94.77;100937.72;4992123;28;20050;-79
2023/10/01 22:39:35;;;;;;;0.57;0.52;;;;;;;18.32;94.62;100907.03;4988245;28;20062;-81
2023/10/01 22:42:21;;;;;;;0.85;0.85;;;;;;;18.54;93.73;100949.88;4965281;28;20110;-81
2023/10/01 22:44:58;;;;;;;3.20;1.50;;;;;;;17.97;94.02;100847.66;4973583;28;20609;-75
2023/10/01 22:47:26;;;;;;;0.55;0.55;;;;;;;18.26;92.68;100899.19;4985009;28;20449;-80
2023/10/01 22:49:55;;;;;;;1.70;0.85;;;;;;;18.49;91.38;100941.16;5000525;28;20189;-81
2023/10/01 22:52:31;;;;;;;0.55;0.30;;;;;;;18.61;91.99;100954.13;5002934;28;20050;-82
2023/10/01 22:55:03;;;;;;;0.85;0.50;;;;;;;18.62;92.82;100963.00;5003778;28;20046;-79
2023/10/01 22:57:40;;;;;;;0.80;0.80;;;;;;;18.52;92.74;100939.31;4992912;28;20405;-79
2023/10/01 23:00:12;;;;;;;0.40;0.32;;;;;;;18.17;90.36;100879.06;4996366;28;20046;-82
2023/10/01 23:02:47;;;;;;;0.95;0.63;;;;;;;18.60;92.34;100965.69;4995939;28;20069;-78
2023/10/01 23:05:16;;;;;;;0.47;0.43;;;;;;;18.03;89.23;100857.28;4991591;28;20101;-76
2023/10/01 23:07:46;;;;;;;0.73;0.68;;;;;;;18.17;89.65;100886.13;4988088;28;20056;-81
2023/10/01 23:10:25;;;;;;;0.25;0.25;;;;;;;18.48;88.53;100932.31;4976509;28;20051;-80
2023/10/01 23:13:07;;;;;;;0.20;0.20;;;;;;;18.01;89.00;100867.91;5018662;28;22476;-83
2023/10/01 23:15:41;;;;;;;0.30;0.20;;;;;;;18.06;88.50;100875.78;4982669;28;20037;-80
2023/10/01 23:18:08;;;;;;;0.32;0.30;;;;;;;18.58;88.44;100962.19;4986319;28;20054;-79
2023/10/01 23:20:49;;;;;;;1.38;1.27;;;;;;;18.10;88.28;100886.28;4980655;28;20374;-80
2023/10/01 23:23:26;;;;;;;0.20;0.20;;;;;;;18.64;88.04;100970.03;4983435;28;20190;-82
2023/10/01 23:26:27;;;;;;;0.40;0.40;;;;;;;18.12;87.24;100889.78;4993503;28;20050;-80
2023/10/01 23:32:18;;;;;;;0.25;0.25;;;;;;;18.60;86.72;100971.00;4987150;28;20580;-79
2023/10/01 23:34:51;;;;;;;4.22;2.05;;;;;;;18.39;86.65;100937.00;4980507;28;20053;-78
2023/10/01 23:37:40;;;;;;;0.28;0.28;;;;;;;18.48;87.18;100944.75;4981049;28;20113;-80
2023/10/01 23:40:23;;;;;;;0.77;0.43;;;;;;;17.77;89.06;100914.47;4988830;28;20058;-81
2023/10/01 23:42:49;;;;;;;0.25;0.25;;;;;;;18.26;91.12;101001.03;4984325;28;20145;-80
2023/10/01 23:45:24;;;;;;;0.93;0.73;;;;;;;18.25;90.41;100962.09;4990918;28;20031;-78
2023/10/01 23:48:13;;;;;;;0.30;0.30;;;;;;;17.90;89.94;100915.94;4991547;28;20046;-79
2023/10/01 23:50:38;;;;;;;0.35;0.30;;;;;;;17.50;91.87;100871.66;4968536;28;20121;-79
2023/10/01 23:53:18;;;;;;;2.60;1.92;;;;;;;17.36;93.92;100896.75;4981572;28;20046;-80
2023/10/01 23:55:45;;;;;;;2.53;1.60;;;;;;;18.03;95.08;101006.00;4988794;28;20038;-80
2023/10/01 23:58:20;;;;;;;0.50;0.47;;;;;;;17.89;96.62;100998.31;4975388;28;20850;-80
